Terminal Aerodrome Forecast
Issued by NWS

Home | Current Version | Previous Version | Text Only | Print | Product List | Glossary On
Versions: 1 2 3 4 5 6 7 8 9 10 11 12 13 14 15 16 17 18 19 20 21 22 23 24 25 26 27 28 29 30 31
000
FTUS44 KEWX 051339 AAA
TAFSSF
TAF AMD
KSSF 051339Z 0514/0612 14006KT P6SM BKN015
      TEMPO 0514/0516 BKN009
     FM051700 15015KT P6SM BKN040
     FM060700 14010KT P6SM OVC015
     FM061000 15005KT P6SM OVC008=

USA.gov is the U.S. government's official web portal to all federal, state and local government web resources and services.